Time;durP1;ratioP1;P1;durP2;ratioP2;P2;SDS_P1;SDS_P2;PMS_P1;PMS_P2;Temp;Humidity;BMP_temperature;BMP_pressure;BME280_temperature;BME280_humidity;BME280_pressure;Samples;Min_cycle;Max_cycle;Signal;HPM_P1;HPM_P2
2022/11/22 00:02:30;;;;;;;0.10;0.10;;;;;;;2.73;100.00;94370.78;4977419;28;20339;-74
2022/11/22 00:05:16;;;;;;;0.10;0.10;;;;;;;2.73;100.00;94370.78;4968264;28;20053;-75
2022/11/22 00:08:03;;;;;;;0.10;0.10;;;;;;;2.73;100.00;94368.16;4973505;28;20854;-72
2022/11/22 00:10:50;;;;;;;0.10;0.10;;;;;;;2.75;100.00;94363.41;4968189;28;20072;-73
2022/11/22 00:13:35;;;;;;;0.20;0.20;;;;;;;2.72;100.00;94361.25;4971129;28;20065;-74
2022/11/22 00:16:21;;;;;;;0.20;0.20;;;;;;;2.75;100.00;94360.75;4959053;28;20049;-70
2022/11/22 00:19:08;;;;;;;0.10;0.10;;;;;;;2.75;100.00;94364.19;4967797;28;20053;-72
2022/11/22 00:21:54;;;;;;;0.10;0.10;;;;;;;2.68;100.00;94347.75;4963458;28;20034;-73
2022/11/22 00:24:40;;;;;;;0.15;0.15;;;;;;;2.78;100.00;94353.13;4967068;28;20105;-71
2022/11/22 00:27:26;;;;;;;0.20;0.20;;;;;;;2.78;100.00;94349.69;4973546;28;20046;-72
2022/11/22 00:30:12;;;;;;;0.20;0.20;;;;;;;2.80;100.00;94344.94;4975096;28;20042;-75
2022/11/22 00:32:58;;;;;;;0.10;0.10;;;;;;;2.84;100.00;94342.63;4973354;28;20054;-74
2022/11/22 00:35:45;;;;;;;0.10;0.10;;;;;;;2.84;100.00;94337.34;4971320;28;20838;-74
2022/11/22 00:38:31;;;;;;;0.20;0.20;;;;;;;2.79;100.00;94340.72;4968436;28;20042;-73
2022/11/22 00:41:17;;;;;;;0.10;0.10;;;;;;;2.86;100.00;94338.66;4976662;28;20284;-72
2022/11/22 00:44:03;;;;;;;0.15;0.15;;;;;;;2.87;100.00;94337.59;4969347;28;20336;-72
2022/11/22 00:46:49;;;;;;;0.20;0.20;;;;;;;2.86;100.00;94336.03;4959559;28;20355;-74
2022/11/22 00:49:35;;;;;;;0.10;0.10;;;;;;;2.82;100.00;94331.50;4974399;28;20140;-72
2022/11/22 00:52:21;;;;;;;0.10;0.10;;;;;;;2.86;100.00;94330.75;4972899;28;20046;-75
2022/11/22 00:55:07;;;;;;;0.20;0.20;;;;;;;2.86;100.00;94330.75;4973850;28;20046;-74
2022/11/22 00:57:52;;;;;;;0.10;0.10;;;;;;;2.92;100.00;94335.03;4975948;28;20053;-74
2022/11/22 01:00:41;;;;;;;0.10;0.10;;;;;;;2.90;100.00;94326.56;4947095;28;20594;-72
2022/11/22 01:03:27;;;;;;;0.10;0.10;;;;;;;2.94;100.00;94330.28;4972138;28;20340;-73
2022/11/22 01:06:13;;;;;;;0.10;0.10;;;;;;;2.95;100.00;94328.44;4960921;28;20060;-74
2022/11/22 01:08:59;;;;;;;0.10;0.10;;;;;;;2.92;100.00;94331.59;4979125;28;20320;-72
2022/11/22 01:11:45;;;;;;;0.10;0.10;;;;;;;2.91;100.00;94346.63;4978229;28;20049;-71
2022/11/22 01:14:32;;;;;;;0.10;0.10;;;;;;;2.90;100.00;94344.25;4982417;28;20205;-74
2022/11/22 01:17:17;;;;;;;0.20;0.20;;;;;;;2.93;100.00;94359.59;4984546;28;20060;-73
2022/11/22 01:20:04;;;;;;;0.10;0.10;;;;;;;2.95;100.00;94352.19;4980219;28;20068;-72
2022/11/22 01:22:50;;;;;;;0.20;0.20;;;;;;;2.96;100.00;94364.41;4979299;28;20089;-74
2022/11/22 01:25:36;;;;;;;0.10;0.10;;;;;;;3.02;100.00;94360.72;4981143;28;20069;-73
2022/11/22 01:28:21;;;;;;;0.10;0.10;;;;;;;3.02;100.00;94356.22;4978345;28;20050;-72
2022/11/22 01:31:08;;;;;;;0.10;0.10;;;;;;;2.96;100.00;94361.75;4981351;28;20142;-71
2022/11/22 01:33:53;;;;;;;0.10;0.10;;;;;;;3.05;100.00;94363.66;4981242;28;20046;-74
2022/11/22 01:36:39;;;;;;;0.15;0.15;;;;;;;3.05;100.00;94358.38;4966013;28;20548;-74
2022/11/22 01:39:25;;;;;;;0.20;0.20;;;;;;;3.03;100.00;94341.97;4979959;28;20507;-72
2022/11/22 01:42:11;;;;;;;0.10;0.10;;;;;;;3.10;100.00;94362.09;4980124;28;20558;-72
2022/11/22 01:45:38;;;;;;;0.10;0.10;;;;;;;3.12;100.00;94365.31;4977997;28;20154;-75
2022/11/22 01:48:29;;;;;;;0.20;0.20;;;;;;;3.13;100.00;94356.34;4966168;28;20404;-75
2022/11/22 01:51:30;;;;;;;0.10;0.10;;;;;;;3.17;100.00;94362.69;4980488;28;20282;-74
2022/11/22 01:54:20;;;;;;;0.10;0.10;;;;;;;3.21;100.00;94366.44;4979701;28;20054;-73
2022/11/22 01:57:11;;;;;;;0.10;0.10;;;;;;;3.19;100.00;94369.34;4978813;28;20235;-72
2022/11/22 02:00:03;;;;;;;0.10;0.10;;;;;;;3.23;100.00;94366.97;4979757;28;20175;-74
2022/11/22 02:02:59;;;;;;;0.10;0.10;;;;;;;3.32;100.00;94379.47;4978822;28;20038;-71
2022/11/22 02:05:46;;;;;;;0.20;0.20;;;;;;;3.36;100.00;94371.84;4970580;28;20652;-74
2022/11/22 02:08:42;;;;;;;0.10;0.10;;;;;;;3.39;100.00;94378.47;4979754;28;20050;-72
2022/11/22 02:11:28;;;;;;;0.20;0.20;;;;;;;3.38;100.00;94382.16;4982444;28;20388;-71
2022/11/22 02:14:17;;;;;;;0.20;0.20;;;;;;;3.32;100.00;94397.97;4979595;28;20410;-71
2022/11/22 02:46:05;;;;;;;0.10;0.10;;;;;;;3.56;100.00;94381.75;4977585;28;20040;-75
2022/11/22 02:48:51;;;;;;;0.10;0.10;;;;;;;3.60;100.00;94382.84;4979476;28;20306;-73
2022/11/22 02:51:37;;;;;;;0.20;0.20;;;;;;;3.61;100.00;94382.56;4977624;28;20072;-74
2022/11/22 02:54:23;;;;;;;0.20;0.20;;;;;;;3.58;100.00;94396.31;4980556;28;20046;-74
2022/11/22 02:57:09;;;;;;;0.10;0.10;;;;;;;3.50;100.00;94385.41;4980642;28;20038;-75
2022/11/22 02:59:54;;;;;;;0.20;0.20;;;;;;;3.50;100.00;94375.66;4978621;28;20053;-69
2022/11/22 03:02:40;;;;;;;0.20;0.20;;;;;;;3.41;100.00;94390.38;4978555;28;20058;-72
2022/11/22 03:05:26;;;;;;;0.10;0.10;;;;;;;3.39;100.00;94395.13;4978680;28;20042;-73
2022/11/22 03:12:19;;;;;;;0.20;0.20;;;;;;;3.43;100.00;94406.00;4980821;28;20050;-75
2022/11/22 03:15:05;;;;;;;0.15;0.15;;;;;;;3.54;100.00;94416.38;4982700;28;20418;-72
2022/11/22 03:18:02;;;;;;;0.10;0.10;;;;;;;3.60;100.00;94407.44;4977804;28;20126;-74
2022/11/22 03:20:49;;;;;;;0.17;0.17;;;;;;;3.58;100.00;94420.13;4979764;28;20037;-73
2022/11/22 03:23:35;;;;;;;0.20;0.20;;;;;;;3.60;100.00;94423.31;4977370;28;20050;-70
2022/11/22 03:26:21;;;;;;;0.20;0.20;;;;;;;3.66;100.00;94432.09;4971210;28;20136;-74
2022/11/22 03:29:07;;;;;;;0.10;0.10;;;;;;;3.72;100.00;94441.63;4977253;28;20314;-72
2022/11/22 03:31:52;;;;;;;0.10;0.10;;;;;;;3.70;100.00;94438.44;4981367;28;20084;-72
2022/11/22 03:34:38;;;;;;;0.10;0.10;;;;;;;3.73;100.00;94435.28;4979862;28;20046;-74
2022/11/22 03:37:24;;;;;;;0.13;0.13;;;;;;;3.82;100.00;94443.56;4979193;28;20034;-76
2022/11/22 03:40:10;;;;;;;0.10;0.10;;;;;;;3.91;100.00;94442.81;4978281;28;20412;-71
2022/11/22 03:43:00;;;;;;;0.15;0.15;;;;;;;4.01;100.00;94441.28;4977651;28;20478;-74
2022/11/22 03:45:46;;;;;;;0.20;0.20;;;;;;;3.99;100.00;94452.13;4979141;28;20049;-73
2022/11/22 03:48:32;;;;;;;0.10;0.10;;;;;;;3.99;100.00;94449.50;4977136;28;20685;-72
2022/11/22 03:51:18;;;;;;;0.13;0.13;;;;;;;4.04;100.00;94452.16;4981036;28;20050;-74
2022/11/22 03:54:04;;;;;;;0.20;0.20;;;;;;;4.08;100.00;94457.75;4978715;28;20045;-74
2022/11/22 03:56:50;;;;;;;0.15;0.15;;;;;;;3.86;100.00;94456.00;4978636;28;21042;-72
2022/11/22 03:59:36;;;;;;;0.10;0.10;;;;;;;3.74;100.00;94470.50;4978298;28;20038;-73
2022/11/22 04:02:22;;;;;;;0.17;0.17;;;;;;;3.66;100.00;94466.47;4979084;28;20133;-72
2022/11/22 04:05:08;;;;;;;0.20;0.20;;;;;;;3.67;100.00;94472.56;4979642;28;20065;-74
2022/11/22 04:07:56;;;;;;;0.20;0.20;;;;;;;3.83;100.00;94472.41;4979397;28;20042;-69
2022/11/22 04:10:42;;;;;;;0.20;0.20;;;;;;;3.97;100.00;94466.66;4978287;28;20065;-74
2022/11/22 04:16:32;;;;;;;0.10;0.10;;;;;;;4.22;100.00;94463.38;4971227;28;20284;-71
2022/11/22 04:19:18;;;;;;;0.20;0.20;;;;;;;4.18;100.00;94466.53;4976469;28;20067;-72
2022/11/22 04:22:04;;;;;;;0.10;0.10;;;;;;;4.14;100.00;94459.38;4978656;28;20629;-70
2022/11/22 04:27:55;;;;;;;0.20;0.20;;;;;;;4.18;100.00;94460.44;4968853;28;20459;-71
2022/11/22 04:33:46;;;;;;;0.10;0.10;;;;;;;4.00;100.00;94453.72;4976860;28;20511;-70
2022/11/22 04:36:32;;;;;;;0.20;0.20;;;;;;;3.80;100.00;94448.28;4966302;28;20037;-71
2022/11/22 04:39:18;;;;;;;0.20;0.20;;;;;;;3.68;100.00;94453.78;4978164;28;20062;-74
2022/11/22 04:45:09;;;;;;;0.10;0.10;;;;;;;3.68;100.00;94452.97;4981501;28;20137;-74
2022/11/22 04:47:58;;;;;;;0.10;0.10;;;;;;;3.50;100.00;94462.91;4970160;28;20137;-70
2022/11/22 04:53:49;;;;;;;0.10;0.10;;;;;;;3.34;100.00;94453.22;4981670;28;20046;-72
2022/11/22 04:56:35;;;;;;;0.10;0.10;;;;;;;3.29;100.00;94450.56;4983557;28;20813;-73
2022/11/22 04:59:20;;;;;;;0.20;0.20;;;;;;;3.28;100.00;94459.53;4984744;28;20262;-73
2022/11/22 05:02:06;;;;;;;0.10;0.10;;;;;;;3.32;100.00;94456.13;4981147;28;20376;-72
2022/11/22 05:04:52;;;;;;;0.20;0.20;;;;;;;3.45;100.00;94459.41;4979401;28;20112;-73
2022/11/22 05:07:38;;;;;;;0.15;0.15;;;;;;;3.39;100.00;94455.94;4983761;28;20542;-74
2022/11/22 05:10:24;;;;;;;0.17;0.17;;;;;;;3.32;100.00;94453.50;4984977;28;20454;-74
2022/11/22 05:13:10;;;;;;;0.17;0.17;;;;;;;3.33;100.00;94470.94;4983024;28;20034;-73
2022/11/22 05:15:56;;;;;;;0.15;0.10;;;;;;;3.33;100.00;94480.72;4984034;28;20042;-72
2022/11/22 05:18:42;;;;;;;0.20;0.20;;;;;;;3.30;100.00;94478.59;4980353;28;20120;-72
2022/11/22 05:21:34;;;;;;;0.20;0.20;;;;;;;3.25;100.00;94481.97;4983225;28;20042;-74
2022/11/22 05:24:20;;;;;;;0.20;0.20;;;;;;;3.16;100.00;94482.69;4974109;28;20050;-75
2022/11/22 05:27:05;;;;;;;0.10;0.10;;;;;;;3.12;100.00;94492.97;4983801;28;20038;-72
2022/11/22 05:29:51;;;;;;;0.20;0.20;;;;;;;3.12;100.00;94487.69;4981247;28;20357;-73
2022/11/22 05:32:37;;;;;;;0.20;0.20;;;;;;;3.08;100.00;94491.84;4981125;28;20056;-75
2022/11/22 05:35:23;;;;;;;0.10;0.10;;;;;;;3.00;100.00;94508.16;4972686;28;20347;-75
2022/11/22 05:38:09;;;;;;;0.20;0.20;;;;;;;2.95;100.00;94510.72;4982136;28;20359;-73
2022/11/22 05:40:55;;;;;;;0.10;0.10;;;;;;;2.92;100.00;94503.31;4969796;28;20042;-70
2022/11/22 05:43:41;;;;;;;0.20;0.20;;;;;;;2.91;100.00;94507.81;4981152;28;20560;-75
2022/11/22 05:46:29;;;;;;;0.20;0.20;;;;;;;2.95;100.00;94513.38;4982046;28;20069;-75
2022/11/22 05:49:14;;;;;;;0.20;0.20;;;;;;;2.88;100.00;94504.84;4982306;28;20046;-70
2022/11/22 05:52:01;;;;;;;0.20;0.20;;;;;;;2.95;100.00;94508.88;4982579;28;20065;-72
2022/11/22 05:54:47;;;;;;;0.10;0.10;;;;;;;2.92;100.00;94506.75;4982944;28;20100;-74
2022/11/22 05:57:33;;;;;;;0.20;0.20;;;;;;;3.07;100.00;94519.34;4970579;28;20038;-76
2022/11/22 06:00:19;;;;;;;0.30;0.20;;;;;;;3.19;100.00;94530.56;4983490;28;20104;-72
2022/11/22 06:03:05;;;;;;;0.10;0.10;;;;;;;3.29;100.00;94521.94;4983402;28;20320;-70
2022/11/22 06:05:51;;;;;;;0.13;0.13;;;;;;;3.39;100.00;94521.22;4981557;28;20344;-75
2022/11/22 06:08:40;;;;;;;0.10;0.10;;;;;;;3.42;100.00;94532.09;4981738;28;20127;-75
2022/11/22 06:11:27;;;;;;;0.20;0.20;;;;;;;3.48;100.00;94533.75;4983702;28;20042;-72
2022/11/22 06:14:12;;;;;;;0.20;0.20;;;;;;;3.29;100.00;94549.16;4980438;28;20368;-73
2022/11/22 06:16:58;;;;;;;0.20;0.20;;;;;;;3.21;100.00;94540.88;4982415;28;20506;-76
2022/11/22 06:19:44;;;;;;;0.20;0.20;;;;;;;3.26;100.00;94562.06;4971179;28;20349;-70
2022/11/22 06:22:30;;;;;;;0.20;0.20;;;;;;;3.22;100.00;94563.63;4969700;28;20494;-71
2022/11/22 06:25:16;;;;;;;0.13;0.13;;;;;;;3.02;100.00;94572.13;4975069;28;20041;-70
2022/11/22 06:28:02;;;;;;;0.10;0.10;;;;;;;3.08;100.00;94582.50;4978001;28;20034;-71
2022/11/22 06:30:47;;;;;;;0.20;0.20;;;;;;;3.25;100.00;94578.97;4969255;28;20065;-70
2022/11/22 06:33:34;;;;;;;0.20;0.20;;;;;;;3.34;100.00;94590.72;4982481;28;20132;-73
2022/11/22 06:36:23;;;;;;;0.20;0.20;;;;;;;3.43;100.00;94586.59;4983504;28;20128;-73
2022/11/22 06:39:09;;;;;;;0.13;0.13;;;;;;;3.48;100.00;94599.06;4982433;28;20047;-70
2022/11/22 06:41:55;;;;;;;0.20;0.20;;;;;;;3.57;100.00;94595.72;4980093;28;20376;-72
2022/11/22 06:44:40;;;;;;;0.20;0.20;;;;;;;3.53;100.00;94607.84;4980869;28;20124;-74
2022/11/22 06:47:26;;;;;;;0.20;0.20;;;;;;;3.57;100.00;94589.63;4982134;28;20041;-72
2022/11/22 06:50:12;;;;;;;0.20;0.20;;;;;;;3.54;100.00;94606.00;4971531;28;20042;-71
2022/11/22 06:52:58;;;;;;;0.20;0.20;;;;;;;3.61;100.00;94606.59;4980037;28;20376;-75
2022/11/22 06:55:44;;;;;;;0.20;0.20;;;;;;;3.60;100.00;94611.09;4980420;28;20153;-72
2022/11/22 06:58:30;;;;;;;0.20;0.20;;;;;;;3.65;100.00;94607.69;4979935;28;20038;-73
2022/11/22 07:01:18;;;;;;;0.10;0.10;;;;;;;3.72;100.00;94605.66;4980429;28;20782;-71
2022/11/22 07:04:04;;;;;;;0.20;0.20;;;;;;;3.75;100.00;94609.66;4978406;28;20042;-73
2022/11/22 07:06:50;;;;;;;0.10;0.10;;;;;;;3.77;100.00;94608.34;4980575;28;20057;-71
2022/11/22 07:09:37;;;;;;;0.10;0.10;;;;;;;3.76;100.00;94621.84;4979669;28;20065;-72
2022/11/22 07:12:23;;;;;;;0.10;0.10;;;;;;;3.79;100.00;94616.03;4981295;28;20108;-71
2022/11/22 07:15:09;;;;;;;0.10;0.10;;;;;;;3.78;100.00;94619.72;4983386;28;20046;-72
2022/11/22 07:17:55;;;;;;;0.20;0.20;;;;;;;3.80;100.00;94622.91;4981047;28;20041;-72
2022/11/22 07:20:41;;;;;;;0.25;0.22;;;;;;;3.82;100.00;94634.06;4981801;28;20388;-74
2022/11/22 07:23:28;;;;;;;0.20;0.20;;;;;;;3.78;100.00;94622.38;4955618;28;20041;-70
2022/11/22 07:26:15;;;;;;;0.17;0.17;;;;;;;3.73;100.00;94631.03;4980440;28;20082;-73
2022/11/22 07:29:03;;;;;;;0.10;0.10;;;;;;;3.79;100.00;94635.34;4978990;28;20042;-74
2022/11/22 07:31:48;;;;;;;0.10;0.10;;;;;;;3.81;100.00;94629.81;4625545;28;10000286;-74
2022/11/22 07:34:34;;;;;;;0.10;0.10;;;;;;;3.81;100.00;94638.56;4977490;28;20584;-72
2022/11/22 07:37:20;;;;;;;0.20;0.20;;;;;;;3.79;100.00;94630.06;4978720;28;20042;-76
2022/11/22 07:40:06;;;;;;;0.17;0.17;;;;;;;3.92;100.00;94634.94;4977927;28;20499;-72
2022/11/22 07:42:52;;;;;;;0.10;0.10;;;;;;;3.83;100.00;94630.38;4978406;28;20056;-72
2022/11/22 07:45:39;;;;;;;0.20;0.20;;;;;;;3.77;100.00;94634.81;4970500;28;20362;-76
2022/11/22 07:48:25;;;;;;;0.20;0.20;;;;;;;3.83;100.00;94635.66;4978498;28;20076;-75
2022/11/22 07:51:11;;;;;;;0.10;0.10;;;;;;;3.91;100.00;94637.84;4980854;28;20038;-74
2022/11/22 07:53:57;;;;;;;0.20;0.20;;;;;;;3.89;100.00;94642.56;4978314;28;20557;-74
2022/11/22 07:56:43;;;;;;;0.20;0.20;;;;;;;3.93;100.00;94638.41;4981798;28;20042;-74
2022/11/22 07:59:28;;;;;;;0.20;0.20;;;;;;;3.90;100.00;94639.72;4977359;28;20047;-70
2022/11/22 08:02:14;;;;;;;0.20;0.20;;;;;;;4.02;100.00;94628.94;4977496;28;20061;-72
2022/11/22 08:05:01;;;;;;;0.20;0.20;;;;;;;4.10;100.00;94636.44;4977957;28;20050;-75
2022/11/22 08:07:51;;;;;;;0.20;0.20;;;;;;;3.99;100.00;94640.03;4967569;28;20054;-71
2022/11/22 08:10:37;;;;;;;0.20;0.20;;;;;;;3.95;100.00;94644.22;4965388;28;20120;-75
2022/11/22 08:13:23;;;;;;;0.20;0.20;;;;;;;4.00;100.00;94639.00;4978822;28;20049;-74
2022/11/22 08:16:13;;;;;;;0.10;0.10;;;;;;;4.06;100.00;94640.63;4979834;28;20511;-75
2022/11/22 08:18:58;;;;;;;0.20;0.20;;;;;;;4.07;100.00;94647.53;4978320;28;20049;-75
2022/11/22 08:21:46;;;;;;;0.20;0.20;;;;;;;3.90;100.00;94646.84;4977884;28;20140;-72
2022/11/22 08:24:32;;;;;;;0.20;0.20;;;;;;;3.80;100.00;94636.94;4972704;28;20045;-75
2022/11/22 08:27:18;;;;;;;0.20;0.20;;;;;;;3.72;100.00;94637.38;4976542;28;20357;-73
2022/11/22 08:30:04;;;;;;;0.20;0.20;;;;;;;3.61;100.00;94643.63;4978744;28;20045;-71
2022/11/22 08:32:54;;;;;;;0.10;0.10;;;;;;;3.42;100.00;94642.34;4965776;28;20256;-75
2022/11/22 08:35:40;;;;;;;0.15;0.15;;;;;;;3.29;100.00;94644.34;4980592;28;20042;-74
2022/11/22 08:38:26;;;;;;;0.10;0.10;;;;;;;3.34;100.00;94656.81;4964242;28;20535;-71
2022/11/22 08:41:12;;;;;;;0.20;0.20;;;;;;;3.37;100.00;94653.69;4979534;28;20044;-75
2022/11/22 08:44:00;;;;;;;0.20;0.20;;;;;;;3.17;100.00;94650.78;4979345;28;20156;-75
2022/11/22 08:46:46;;;;;;;0.20;0.20;;;;;;;3.12;100.00;94651.53;4980438;28;20577;-71
2022/11/22 08:49:32;;;;;;;0.20;0.20;;;;;;;3.07;100.00;94662.84;4978192;28;20156;-74
2022/11/22 08:52:18;;;;;;;0.20;0.20;;;;;;;3.05;100.00;94659.66;4978617;28;20232;-75
2022/11/22 08:55:04;;;;;;;0.17;0.17;;;;;;;3.29;100.00;94688.50;4977722;28;20398;-74
2022/11/22 08:57:50;;;;;;;0.22;0.20;;;;;;;3.39;100.00;94678.03;4977511;28;20532;-71
2022/11/22 09:00:36;;;;;;;0.20;0.20;;;;;;;3.50;100.00;94678.94;4979845;28;20046;-73
2022/11/22 09:03:22;;;;;;;0.20;0.20;;;;;;;3.67;100.00;94684.97;4974930;28;20054;-74
2022/11/22 09:06:11;;;;;;;0.10;0.10;;;;;;;3.79;100.00;94685.63;4968541;28;20092;-75
2022/11/22 09:08:57;;;;;;;0.20;0.20;;;;;;;3.62;100.00;94682.25;4980208;28;20044;-72
2022/11/22 09:11:43;;;;;;;0.10;0.10;;;;;;;3.76;100.00;94693.25;4980949;28;20168;-73
2022/11/22 09:14:28;;;;;;;0.10;0.10;;;;;;;3.80;100.00;94694.34;4976537;28;20807;-75
2022/11/22 09:17:14;;;;;;;0.17;0.17;;;;;;;4.00;100.00;94693.78;4973965;28;20474;-71
2022/11/22 09:20:00;;;;;;;0.10;0.10;;;;;;;3.98;100.00;94699.31;4978544;28;20451;-75
2022/11/22 09:22:46;;;;;;;0.20;0.20;;;;;;;4.07;100.00;94708.41;4974534;28;20147;-72
2022/11/22 09:25:32;;;;;;;0.10;0.10;;;;;;;4.07;100.00;94713.69;4976201;28;20702;-71
2022/11/22 09:28:18;;;;;;;0.20;0.20;;;;;;;4.40;100.00;94712.69;4975892;28;20132;-74
2022/11/22 09:31:06;;;;;;;0.13;0.13;;;;;;;4.63;100.00;94700.94;4968917;28;20157;-74
2022/11/22 09:33:52;;;;;;;0.10;0.10;;;;;;;4.48;100.00;94711.41;4976774;28;20050;-73
2022/11/22 09:36:38;;;;;;;0.20;0.20;;;;;;;4.60;100.00;94693.50;4971261;28;20070;-75
2022/11/22 09:39:24;;;;;;;0.20;0.20;;;;;;;4.51;100.00;94684.41;4966518;28;20038;-73
2022/11/22 09:42:40;;;;;;;0.15;0.15;;;;;;;4.64;100.00;94688.50;4979909;28;20414;-74
2022/11/22 09:45:39;;;;;;;0.20;0.20;;;;;;;4.78;100.00;94688.88;4981460;28;20046;-69
2022/11/22 09:49:01;;;;;;;0.20;0.20;;;;;;;4.88;100.00;94683.63;4981726;28;20461;-75
2022/11/22 09:51:53;;;;;;;0.20;0.20;;;;;;;4.53;100.00;94687.63;4979621;28;20038;-72
2022/11/22 09:54:54;;;;;;;0.17;0.17;;;;;;;4.72;100.00;94686.16;4980073;28;20525;-75
2022/11/22 09:57:46;;;;;;;;;;;;;;;4.64;100.00;94684.00;4975389;28;20387;-75
2022/11/22 10:00:33;;;;;;;0.20;0.20;;;;;;;5.47;100.00;94675.47;4979680;28;19947;-72
2022/11/22 10:03:25;;;;;;;0.10;0.10;;;;;;;4.83;100.00;94673.00;4968669;28;20565;-72
2022/11/22 10:06:18;;;;;;;0.20;0.20;;;;;;;5.15;100.00;94671.06;4979771;28;20153;-73
2022/11/22 10:09:12;;;;;;;0.13;0.13;;;;;;;5.43;100.00;94674.38;4963922;28;20121;-74
2022/11/22 10:12:15;;;;;;;0.20;0.20;;;;;;;5.65;100.00;94669.69;4979665;28;20046;-73
2022/11/22 10:15:31;;;;;;;0.30;0.30;;;;;;;8.72;100.00;94657.25;4978858;28;20255;-76
2022/11/22 10:18:30;;;;;;;0.20;0.20;;;;;;;6.96;100.00;94668.22;4929567;28;20050;-75
2022/11/22 10:21:18;;;;;;;0.10;0.10;;;;;;;6.39;100.00;94668.53;4979321;28;20041;-73
2022/11/22 10:24:05;;;;;;;0.10;0.10;;;;;;;5.68;100.00;94669.19;4969892;28;20034;-73
2022/11/22 10:26:53;;;;;;;0.20;0.20;;;;;;;5.44;100.00;94675.97;4981736;28;20034;-71
2022/11/22 10:30:16;;;;;;;0.10;0.10;;;;;;;4.67;100.00;94682.69;4974182;28;20495;-74
2022/11/22 10:33:24;;;;;;;0.10;0.10;;;;;;;4.66;100.00;94675.78;4924841;28;20062;-74
2022/11/22 10:36:54;;;;;;;0.10;0.10;;;;;;;4.64;100.00;94668.09;4981601;28;20038;-74
2022/11/22 10:40:03;;;;;;;0.15;0.15;;;;;;;4.53;100.00;94663.78;4949319;28;20037;-73
2022/11/22 10:43:21;;;;;;;0.20;0.20;;;;;;;4.78;100.00;94663.16;4983374;28;20142;-74
2022/11/22 10:46:19;;;;;;;0.20;0.20;;;;;;;4.80;100.00;94654.94;4980470;28;20042;-73
2022/11/22 10:49:36;;;;;;;0.10;0.10;;;;;;;4.73;100.00;94650.66;4979906;28;20761;-74
2022/11/22 10:52:43;;;;;;;0.10;0.10;;;;;;;4.55;100.00;94631.75;4981635;28;20554;-74
2022/11/22 10:55:49;;;;;;;0.20;0.20;;;;;;;4.38;100.00;94643.28;4984650;28;20041;-72
2022/11/22 10:59:19;;;;;;;0.10;0.10;;;;;;;4.46;100.00;94634.06;4980628;28;20050;-73
2022/11/22 11:02:21;;;;;;;0.20;0.20;;;;;;;4.71;100.00;94634.22;4961346;28;20525;-72
2022/11/22 11:05:13;;;;;;;0.20;0.20;;;;;;;4.76;100.00;94622.88;4979963;28;20108;-70
2022/11/22 11:08:00;;;;;;;0.10;0.10;;;;;;;5.27;100.00;94623.13;4976909;28;20078;-72
2022/11/22 11:10:46;;;;;;;0.20;0.20;;;;;;;5.39;100.00;94607.78;4979132;28;20050;-72
2022/11/22 11:13:43;;;;;;;0.15;0.15;;;;;;;5.19;100.00;94608.50;4978569;28;20619;-76
2022/11/22 11:16:35;;;;;;;0.20;0.20;;;;;;;5.88;100.00;94608.16;4979517;28;20519;-72
2022/11/22 11:19:23;;;;;;;0.20;0.20;;;;;;;5.95;100.00;94610.59;4977287;28;20184;-76
2022/11/22 11:22:17;;;;;;;0.10;0.10;;;;;;;5.21;100.00;94613.53;4976109;28;20093;-72
2022/11/22 11:25:39;;;;;;;0.15;0.15;;;;;;;4.87;100.00;94610.47;4979514;28;20546;-75
2022/11/22 11:28:27;;;;;;;0.13;0.13;;;;;;;4.81;100.00;94620.25;4969365;28;20117;-75
2022/11/22 11:31:17;;;;;;;0.20;0.20;;;;;;;4.81;100.00;94630.03;4978086;28;20066;-74
2022/11/22 11:34:22;;;;;;;0.10;0.10;;;;;;;4.53;100.00;94605.50;4629983;28;10001173;-76
2022/11/22 11:37:20;;;;;;;0.10;0.10;;;;;;;4.44;100.00;94604.41;4604006;28;10000110;-75
2022/11/22 11:40:27;;;;;;;0.17;0.17;;;;;;;4.49;100.00;94617.66;4973240;28;20045;-76
2022/11/22 11:43:17;;;;;;;0.13;0.13;;;;;;;4.54;100.00;94622.19;4960795;28;20422;-74
2022/11/22 11:46:20;;;;;;;0.20;0.20;;;;;;;4.72;100.00;94632.38;4965387;28;20046;-73
2022/11/22 11:49:14;;;;;;;0.20;0.20;;;;;;;4.82;100.00;94631.63;4954271;28;20049;-75
2022/11/22 11:52:07;;;;;;;0.38;0.38;;;;;;;7.86;100.00;94614.13;4978003;28;20355;-75
2022/11/22 11:54:58;;;;;;;0.10;0.10;;;;;;;6.54;100.00;94603.97;4968638;28;20507;-74
2022/11/22 11:57:44;;;;;;;0.20;0.20;;;;;;;5.58;100.00;94608.09;4967815;28;20037;-74
2022/11/22 12:00:37;;;;;;;0.10;0.10;;;;;;;5.06;100.00;94616.13;4978353;28;20057;-75
2022/11/22 12:03:24;;;;;;;0.10;0.10;;;;;;;4.97;100.00;94613.97;4969393;28;20050;-75
2022/11/22 12:06:12;;;;;;;0.20;0.20;;;;;;;4.94;100.00;94608.38;4979717;28;20101;-70
2022/11/22 12:09:00;;;;;;;0.10;0.10;;;;;;;5.04;100.00;94619.03;4976735;28;20069;-71
2022/11/22 12:11:50;;;;;;;0.20;0.20;;;;;;;4.93;100.00;94610.25;4978784;28;20045;-70
2022/11/22 12:14:40;;;;;;;0.10;0.10;;;;;;;4.95;100.00;94620.59;4978042;28;20836;-74
2022/11/22 12:17:30;;;;;;;0.10;0.10;;;;;;;4.96;100.00;94609.72;4972977;28;20101;-72
2022/11/22 12:20:40;;;;;;;0.20;0.20;;;;;;;4.95;100.00;94609.97;4977291;28;20237;-71
2022/11/22 12:23:39;;;;;;;0.10;0.10;;;;;;;4.73;100.00;94616.22;4963308;28;20085;-75
2022/11/22 12:26:28;;;;;;;0.10;0.10;;;;;;;4.65;100.00;94619.34;4977520;28;20042;-72
2022/11/22 12:29:15;;;;;;;0.10;0.10;;;;;;;4.62;100.00;94603.97;4961014;28;20060;-74
2022/11/22 12:32:10;;;;;;;0.13;0.13;;;;;;;4.74;100.00;94620.47;4976972;28;20057;-75
2022/11/22 12:35:08;;;;;;;0.30;0.30;;;;;;;4.64;100.00;94619.63;4977922;28;20050;-73
2022/11/22 12:38:07;;;;;;;0.13;0.13;;;;;;;4.62;100.00;94619.88;4953846;28;20054;-74
2022/11/22 12:40:58;;;;;;;0.20;0.20;;;;;;;4.62;100.00;94606.63;4978127;28;20345;-72
2022/11/22 12:43:52;;;;;;;0.20;0.20;;;;;;;4.78;100.00;94606.72;4979387;28;20046;-74
2022/11/22 12:46:41;;;;;;;0.20;0.20;;;;;;;4.66;100.00;94602.41;4978042;28;20461;-76
2022/11/22 12:49:34;;;;;;;0.13;0.13;;;;;;;4.70;100.00;94600.84;4974692;28;20723;-76
2022/11/22 12:52:23;;;;;;;0.10;0.10;;;;;;;4.75;100.00;94600.88;4975705;28;20274;-74
2022/11/22 12:55:28;;;;;;;0.10;0.10;;;;;;;4.61;100.00;94606.88;4981307;28;20030;-74
2022/11/22 12:58:23;;;;;;;0.20;0.20;;;;;;;4.57;100.00;94597.84;4977200;28;20121;-74
2022/11/22 13:01:32;;;;;;;0.10;0.10;;;;;;;4.70;100.00;94608.00;4979078;28;20129;-73
2022/11/22 13:04:25;;;;;;;0.10;0.10;;;;;;;4.69;100.00;94601.91;4979941;28;20307;-74
2022/11/22 13:07:24;;;;;;;0.15;0.15;;;;;;;4.62;100.00;94606.63;4982071;28;20037;-77
2022/11/22 13:10:22;;;;;;;0.20;0.20;;;;;;;4.55;100.00;94614.00;4982075;28;20173;-72
2022/11/22 13:13:23;;;;;;;0.10;0.10;;;;;;;4.59;100.00;94609.78;4984078;28;20177;-72
2022/11/22 13:16:11;;;;;;;0.20;0.20;;;;;;;4.64;100.00;94612.47;4993933;28;20049;-70
2022/11/22 13:19:03;;;;;;;0.10;0.10;;;;;;;4.57;100.00;94609.22;4989963;28;20390;-73
2022/11/22 13:22:00;;;;;;;0.10;0.10;;;;;;;4.65;100.00;94607.97;4971884;28;20039;-70
2022/11/22 13:25:11;;;;;;;0.20;0.20;;;;;;;4.59;100.00;94608.97;4986645;28;20226;-72
2022/11/22 13:28:00;;;;;;;0.10;0.10;;;;;;;4.59;100.00;94604.50;4979742;28;20058;-73
2022/11/22 13:31:11;;;;;;;0.20;0.20;;;;;;;4.64;100.00;94599.22;4988587;28;20622;-73
2022/11/22 13:34:02;;;;;;;0.20;0.20;;;;;;;4.64;100.00;94595.78;4983195;28;20046;-72
2022/11/22 13:36:48;;;;;;;0.13;0.13;;;;;;;4.67;100.00;94603.19;4977525;28;20046;-72
2022/11/22 13:39:41;;;;;;;0.15;0.15;;;;;;;4.78;100.00;94609.38;4970065;28;20042;-72
2022/11/22 13:42:27;;;;;;;0.10;0.10;;;;;;;4.73;100.00;94610.13;4980771;28;20076;-71
2022/11/22 13:45:23;;;;;;;0.10;0.10;;;;;;;4.75;100.00;94611.47;4979667;28;20042;-71
2022/11/22 13:48:10;;;;;;;0.10;0.10;;;;;;;4.88;100.00;94604.09;4976990;28;20081;-74
2022/11/22 13:50:58;;;;;;;0.10;0.10;;;;;;;4.73;100.00;94599.53;4973580;28;20045;-71
2022/11/22 13:53:46;;;;;;;0.20;0.20;;;;;;;4.67;100.00;94608.50;4978324;28;20041;-74
2022/11/22 13:56:35;;;;;;;0.20;0.20;;;;;;;4.79;100.00;94597.72;4978758;28;20034;-72
2022/11/22 13:59:21;;;;;;;0.13;0.13;;;;;;;4.51;100.00;94602.31;4978725;28;20038;-74
2022/11/22 14:02:21;;;;;;;0.20;0.20;;;;;;;4.46;100.00;94597.00;4977826;28;20053;-70
2022/11/22 14:05:32;;;;;;;0.10;0.10;;;;;;;4.42;100.00;94601.19;4977912;28;20045;-71
2022/11/22 14:08:42;;;;;;;0.20;0.20;;;;;;;4.40;100.00;94598.00;4977181;28;20414;-70
2022/11/22 14:11:52;;;;;;;0.10;0.10;;;;;;;4.32;100.00;94593.19;4978231;28;20108;-71